createdAt,value
2022-10-23T05:43:48.897Z,29.75
2022-10-23T05:47:04.610Z,34.72
2022-10-23T05:49:50.915Z,37.25
2022-10-23T05:52:34.040Z,34.20
2022-10-23T05:55:25.865Z,41.30
2022-10-23T05:58:17.941Z,27.60
2022-10-23T06:01:08.126Z,29.65
2022-10-23T06:03:56.348Z,29.35
2022-10-23T06:06:31.401Z,33.72
2022-10-23T06:08:59.441Z,29.35
2022-10-23T06:11:27.551Z,29.67
2022-10-23T06:14:03.381Z,27.42
2022-10-23T06:16:31.414Z,25.42
2022-10-23T06:19:00.284Z,26.52
2022-10-23T06:21:28.128Z,24.98
2022-10-23T06:23:56.699Z,20.90
2022-10-23T06:26:53.835Z,28.38
2022-10-23T06:29:27.245Z,24.95
2022-10-23T06:31:54.968Z,22.70
2022-10-23T06:34:23.645Z,23.00
2022-10-23T06:37:09.948Z,22.75
2022-10-23T06:39:46.376Z,17.83
2022-10-23T06:42:35.565Z,20.10
2022-10-23T06:45:34.099Z,20.08
2022-10-23T06:48:25.006Z,18.58
2022-10-23T06:51:03.844Z,19.38
2022-10-23T06:53:38.098Z,18.92
2022-10-23T06:56:13.034Z,16.17
2022-10-23T06:58:40.905Z,16.98
2022-10-23T07:01:14.590Z,19.38
2022-10-23T07:04:02.675Z,21.67
2022-10-23T07:06:31.231Z,15.20
2022-10-23T07:08:59.912Z,15.45
2022-10-23T07:11:46.412Z,15.45
2022-10-23T07:14:14.519Z,17.88
2022-10-23T07:17:00.922Z,17.23
2022-10-23T07:19:29.681Z,21.15
2022-10-23T07:21:58.928Z,18.17
2022-10-23T07:24:48.465Z,17.85
2022-10-23T07:27:29.251Z,16.13
2022-10-23T07:30:00.378Z,18.75
2022-10-23T07:32:31.975Z,14.73
2022-10-23T07:35:18.711Z,14.90
2022-10-23T07:38:13.978Z,17.65
2022-10-23T07:40:45.708Z,22.02
2022-10-23T07:43:18.577Z,14.98
2022-10-23T07:48:38.939Z,22.95
2022-10-23T07:51:25.311Z,19.52
2022-10-23T07:54:18.623Z,18.65
2022-10-23T07:57:30.552Z,17.95
2022-10-23T08:00:32.419Z,16.13
2022-10-23T08:03:12.875Z,12.75
2022-10-23T08:06:00.174Z,15.77
2022-10-23T08:08:47.335Z,16.30
2022-10-23T08:11:15.538Z,23.48
2022-10-23T08:14:09.187Z,15.95
2022-10-23T08:16:37.971Z,14.55
2022-10-23T08:19:06.505Z,18.17
2022-10-23T08:21:36.316Z,20.38
2022-10-23T08:24:05.037Z,15.77
2022-10-23T08:26:32.715Z,16.60
2022-10-23T08:29:00.422Z,14.85
2022-10-23T08:31:28.856Z,13.60
2022-10-23T08:34:18.727Z,19.73
2022-10-23T08:37:07.843Z,15.85
2022-10-23T08:39:56.173Z,17.38
2022-10-23T08:43:03.588Z,17.00
2022-10-23T08:48:35.687Z,17.27
2022-10-23T08:51:44.565Z,13.90
2022-10-23T08:54:45.076Z,16.92
2022-10-23T08:57:40.072Z,21.80
2022-10-23T09:00:15.406Z,18.63
2022-10-23T09:03:03.241Z,13.93
2022-10-23T09:05:50.401Z,15.35
2022-10-23T09:08:36.131Z,11.50
2022-10-23T09:11:14.665Z,11.63
2022-10-23T09:14:14.736Z,20.85
2022-10-23T09:16:51.649Z,10.77
2022-10-23T09:19:20.848Z,12.88
2022-10-23T09:21:52.042Z,14.68
2022-10-23T09:24:21.997Z,16.92
2022-10-23T09:26:51.182Z,18.23
2022-10-23T09:29:32.006Z,14.38
2022-10-23T09:32:00.759Z,14.85
2022-10-23T09:34:29.792Z,13.98
2022-10-23T09:36:59.434Z,12.52
2022-10-23T09:42:25.030Z,19.08
2022-10-23T09:44:53.851Z,19.65
2022-10-23T09:47:24.478Z,16.40
2022-10-23T09:49:54.099Z,17.95
2022-10-23T09:52:26.146Z,18.92
2022-10-23T09:55:00.970Z,19.48
2022-10-23T09:57:31.902Z,13.82
2022-10-23T10:02:39.282Z,15.23
2022-10-23T10:05:32.317Z,14.55
2022-10-23T10:08:34.841Z,12.48
2022-10-23T10:11:21.084Z,15.00
2022-10-23T10:14:23.204Z,16.30
2022-10-23T10:17:25.855Z,14.57
2022-10-23T10:20:05.458Z,15.77
2022-10-23T10:25:40.194Z,19.65
2022-10-23T10:28:32.433Z,19.55
2022-10-23T10:31:12.842Z,18.60
2022-10-23T10:34:16.404Z,26.67
2022-10-23T10:36:55.039Z,18.05
2022-10-23T10:39:28.877Z,16.55
2022-10-23T10:42:32.171Z,18.40
2022-10-23T10:45:46.505Z,17.50
2022-10-23T10:48:51.790Z,13.00
2022-10-23T10:51:54.702Z,21.23
2022-10-23T10:54:35.991Z,15.98
2022-10-23T10:57:05.716Z,16.40
2022-10-23T10:59:52.011Z,16.45
2022-10-23T11:02:41.687Z,19.13
2022-10-23T11:05:19.133Z,16.48
2022-10-23T11:08:00.071Z,16.90
2022-10-23T11:12:55.472Z,13.25
2022-10-23T11:15:27.164Z,12.35
2022-10-23T11:18:02.983Z,12.82
2022-10-23T11:20:51.002Z,19.33
2022-10-23T11:23:54.190Z,17.20
2022-10-23T11:26:28.538Z,15.93
2022-10-23T11:29:20.437Z,16.77
2022-10-23T11:31:57.400Z,13.32
2022-10-23T11:34:50.997Z,19.77
2022-10-23T11:37:19.087Z,16.70
2022-10-23T11:40:02.181Z,17.98
2022-10-23T11:42:35.003Z,19.77
2022-10-23T11:45:05.099Z,14.32
2022-10-23T11:47:40.126Z,17.45
2022-10-23T11:50:08.177Z,18.85
2022-10-23T11:53:19.425Z,17.38
2022-10-23T11:56:12.055Z,17.50
2022-10-23T11:58:44.594Z,16.90
2022-10-23T12:01:41.476Z,25.15
2022-10-23T12:04:15.666Z,15.10
2022-10-23T12:07:00.264Z,11.90
2022-10-23T12:09:36.288Z,19.90
2022-10-23T12:12:10.196Z,14.27
2022-10-23T12:14:46.146Z,9.20
2022-10-23T12:17:35.966Z,13.57
2022-10-23T12:20:03.548Z,16.42
2022-10-23T12:22:51.972Z,15.20
2022-10-23T12:25:57.513Z,16.08
2022-10-23T12:28:39.131Z,14.95
2022-10-23T12:31:36.209Z,13.48
2022-10-23T12:34:33.118Z,11.98
2022-10-23T12:37:06.499Z,13.77
2022-10-23T12:39:41.900Z,17.52
2022-10-23T12:42:28.333Z,16.70
2022-10-23T12:45:02.774Z,15.82
2022-10-23T12:47:30.637Z,13.50
2022-10-23T12:49:58.274Z,11.65
2022-10-23T12:52:26.147Z,13.55
2022-10-23T12:54:53.794Z,15.68
2022-10-23T12:57:28.994Z,12.32
2022-10-23T13:00:02.607Z,16.02
2022-10-23T13:02:32.039Z,13.27
2022-10-23T13:05:01.403Z,12.45
2022-10-23T13:07:34.437Z,17.35
2022-10-23T13:10:03.692Z,14.35
2022-10-23T13:12:35.685Z,13.73
2022-10-23T13:15:06.444Z,18.08
2022-10-23T13:18:03.538Z,18.40
2022-10-23T13:20:50.414Z,15.27
2022-10-23T13:23:19.449Z,18.60
2022-10-23T13:26:02.444Z,15.45
2022-10-23T13:28:52.395Z,14.52
2022-10-23T13:31:38.421Z,14.43
2022-10-23T13:34:13.189Z,14.70
2022-10-23T13:36:53.229Z,15.13
2022-10-23T13:39:28.202Z,17.92
2022-10-23T13:41:55.924Z,15.75
2022-10-23T13:44:24.042Z,15.43
2022-10-23T13:46:52.344Z,16.33
2022-10-23T13:49:20.180Z,23.30
2022-10-23T13:51:54.531Z,17.85
2022-10-23T13:54:24.061Z,17.80
2022-10-23T13:56:52.190Z,18.85
2022-10-23T13:59:20.069Z,16.50
2022-10-23T14:01:48.410Z,17.27
2022-10-23T14:04:16.897Z,19.80
2022-10-23T14:06:44.631Z,18.10
2022-10-23T14:09:31.686Z,18.20
2022-10-23T14:14:44.386Z,17.15
2022-10-23T14:17:12.021Z,20.38
2022-10-23T14:19:39.723Z,17.30
2022-10-23T14:22:07.306Z,20.75
2022-10-23T14:24:35.633Z,17.63
2022-10-23T14:27:03.254Z,19.88
2022-10-23T14:29:31.076Z,18.30
2022-10-23T14:31:58.664Z,23.08
2022-10-23T14:34:26.381Z,20.10
2022-10-23T14:37:07.496Z,19.15
2022-10-23T14:39:36.341Z,19.02
2022-10-23T14:42:04.022Z,21.85
2022-10-23T14:44:31.747Z,17.38
2022-10-23T14:47:00.193Z,18.27
2022-10-23T14:49:27.844Z,19.27
2022-10-23T14:51:55.423Z,18.63
2022-10-23T14:54:41.627Z,16.08
2022-10-23T14:57:28.133Z,23.15
2022-10-23T15:00:14.746Z,17.95
2022-10-23T15:02:42.595Z,16.10
2022-10-23T15:05:10.416Z,21.63
2022-10-23T15:07:38.193Z,19.20
2022-10-23T15:10:06.826Z,17.00
2022-10-23T15:12:37.589Z,26.63
2022-10-23T15:15:06.081Z,17.35
2022-10-23T15:17:52.370Z,19.23
2022-10-23T15:20:20.205Z,17.67
2022-10-23T15:22:47.787Z,12.50
2022-10-23T15:25:17.969Z,17.15
2022-10-23T15:27:46.047Z,21.85
2022-10-23T15:30:13.957Z,14.70
2022-10-23T15:32:41.672Z,17.17
2022-10-23T15:35:09.349Z,17.70
2022-10-23T15:37:55.506Z,16.73
2022-10-23T15:40:23.211Z,18.65
2022-10-23T15:42:50.875Z,14.95
2022-10-23T15:45:18.485Z,16.10
2022-10-23T15:47:46.245Z,16.45
2022-10-23T15:50:14.077Z,19.35
2022-10-23T15:53:00.465Z,16.40
2022-10-23T15:55:28.334Z,21.90
2022-10-23T15:57:57.345Z,15.77
2022-10-23T16:00:44.026Z,16.33
2022-10-23T16:03:11.740Z,18.55
2022-10-23T16:05:39.477Z,20.70
2022-10-23T16:08:07.208Z,18.38
2022-10-23T16:10:39.475Z,11.43
2022-10-23T16:13:07.156Z,13.75
2022-10-23T16:15:39.359Z,17.55
2022-10-23T16:18:10.556Z,20.88
2022-10-23T16:20:40.186Z,21.17
2022-10-23T16:23:07.746Z,13.70
2022-10-23T16:25:36.524Z,11.10
2022-10-23T16:28:04.364Z,13.18
2022-10-23T16:31:10.376Z,14.57
2022-10-23T16:34:00.000Z,14.23
2022-10-23T16:36:28.266Z,17.63
2022-10-23T16:39:20.396Z,13.95
2022-10-23T16:42:07.109Z,12.82
2022-10-23T16:44:53.503Z,17.35
2022-10-23T16:47:39.952Z,12.27
2022-10-23T16:50:07.854Z,13.90
2022-10-23T16:52:35.477Z,12.50
2022-10-23T16:55:03.232Z,12.65
2022-10-23T16:57:30.902Z,22.83
2022-10-23T16:59:58.648Z,15.85
2022-10-23T17:02:26.695Z,15.90
2022-10-23T17:04:54.457Z,24.65
2022-10-23T17:07:24.182Z,17.98
2022-10-23T17:09:52.186Z,11.43
2022-10-23T17:12:20.072Z,13.23
2022-10-23T17:14:47.744Z,19.75
2022-10-23T17:17:15.504Z,15.05
